createdAt,value
2023-03-25T00:01:35.905Z,2.10
2023-03-25T00:04:05.439Z,1.70
2023-03-25T00:06:35.136Z,2.60
2023-03-25T00:09:05.741Z,4.47
2023-03-25T00:11:34.542Z,2.47
2023-03-25T00:14:03.085Z,2.10
2023-03-25T00:16:31.757Z,1.67
2023-03-25T00:19:02.238Z,3.67
2023-03-25T00:21:33.671Z,1.80
2023-03-25T00:24:03.181Z,2.20
2023-03-25T00:26:33.420Z,2.53
2023-03-25T00:29:02.171Z,1.87
2023-03-25T00:31:30.781Z,2.07
2023-03-25T00:33:59.988Z,2.03
2023-03-25T00:36:28.831Z,2.03
2023-03-25T00:38:57.558Z,1.80
2023-03-25T00:41:27.704Z,1.87
2023-03-25T00:43:59.178Z,1.73
2023-03-25T00:46:30.237Z,1.53
2023-03-25T00:48:59.944Z,1.37
2023-03-25T00:51:31.382Z,1.70
2023-03-25T00:54:01.551Z,1.60
2023-03-25T00:56:30.961Z,1.70
2023-03-25T00:59:01.442Z,2.40
2023-03-25T01:01:30.619Z,1.47
2023-03-25T01:04:00.744Z,1.27
2023-03-25T01:06:33.372Z,1.57
2023-03-25T01:09:05.967Z,2.20
2023-03-25T01:11:37.895Z,1.60
2023-03-25T01:14:09.886Z,1.60
2023-03-25T01:16:38.693Z,1.80
2023-03-25T01:19:07.374Z,1.80
2023-03-25T01:21:36.874Z,2.30
2023-03-25T01:24:06.660Z,2.00
2023-03-25T01:26:35.467Z,1.90
2023-03-25T01:29:04.435Z,2.10
2023-03-25T01:31:35.033Z,1.93
2023-03-25T01:34:04.402Z,1.90
2023-03-25T01:36:33.003Z,1.80
2023-03-25T01:39:02.725Z,1.60
2023-03-25T01:41:46.417Z,1.47
2023-03-25T01:44:56.635Z,1.47
2023-03-25T01:47:27.495Z,1.50
2023-03-25T01:49:55.983Z,1.60
2023-03-25T01:52:27.893Z,1.80
2023-03-25T01:54:58.090Z,2.30
2023-03-25T01:57:27.118Z,1.80
2023-03-25T01:59:57.268Z,2.27
2023-03-25T02:02:36.996Z,2.00
2023-03-25T02:05:11.015Z,1.90
2023-03-25T02:07:46.946Z,2.07
2023-03-25T02:10:17.125Z,2.20
2023-03-25T02:12:47.328Z,2.37
2023-03-25T02:15:18.280Z,2.40
2023-03-25T02:18:13.568Z,2.43
2023-03-25T02:21:04.402Z,3.07
2023-03-25T02:23:58.322Z,2.80
2023-03-25T02:26:56.510Z,3.10
2023-03-25T02:29:41.198Z,2.53
2023-03-25T02:32:23.329Z,2.30
2023-03-25T02:35:15.079Z,2.30
2023-03-25T02:38:17.361Z,2.47
2023-03-25T02:40:52.552Z,2.13
2023-03-25T02:43:24.640Z,2.30
2023-03-25T02:45:57.528Z,2.07
2023-03-25T02:48:33.421Z,2.03
2023-03-25T02:51:10.391Z,2.00
2023-03-25T02:53:44.510Z,1.90
2023-03-25T02:56:17.065Z,2.10
2023-03-25T02:58:48.199Z,2.00
2023-03-25T03:01:16.686Z,2.33
2023-03-25T03:03:45.580Z,1.80
2023-03-25T03:06:19.497Z,2.00
2023-03-25T03:09:06.198Z,1.50
2023-03-25T03:11:40.513Z,1.70
2023-03-25T03:14:26.898Z,1.27
2023-03-25T03:17:09.333Z,1.70
2023-03-25T03:19:46.728Z,1.83
2023-03-25T03:22:37.069Z,1.50
2023-03-25T03:25:15.774Z,1.63
2023-03-25T03:27:48.768Z,1.90
2023-03-25T03:30:23.836Z,2.27
2023-03-25T03:32:57.918Z,2.00
2023-03-25T03:35:33.315Z,1.43
2023-03-25T03:38:04.626Z,1.80
2023-03-25T03:40:37.664Z,1.50
2023-03-25T03:43:09.411Z,1.83
2023-03-25T03:45:42.629Z,1.57
2023-03-25T03:48:17.047Z,1.83
2023-03-25T03:50:50.778Z,2.00
2023-03-25T03:53:26.931Z,1.63
2023-03-25T03:56:03.839Z,1.80
2023-03-25T03:58:36.174Z,1.43
2023-03-25T04:01:10.033Z,1.53
2023-03-25T04:03:44.926Z,1.80
2023-03-25T04:06:21.203Z,1.90
2023-03-25T04:08:59.058Z,1.93
2023-03-25T04:11:34.647Z,1.90
2023-03-25T04:14:05.563Z,2.30
2023-03-25T04:16:36.136Z,1.97
2023-03-25T04:19:05.590Z,1.90
2023-03-25T04:21:34.835Z,1.90
2023-03-25T04:24:04.849Z,1.90
2023-03-25T04:26:37.875Z,2.40
2023-03-25T04:29:07.655Z,1.90
2023-03-25T04:31:36.188Z,2.43
2023-03-25T04:34:05.023Z,2.30
2023-03-25T04:36:38.134Z,2.20
2023-03-25T04:39:07.464Z,2.30
2023-03-25T04:41:37.738Z,2.30
2023-03-25T04:44:08.096Z,2.30
2023-03-25T04:46:37.769Z,2.40
2023-03-25T04:49:14.204Z,2.10
2023-03-25T04:51:45.152Z,2.00
2023-03-25T04:54:15.935Z,2.03
2023-03-25T04:56:49.992Z,1.90
2023-03-25T04:59:19.075Z,2.30
2023-03-25T05:01:48.550Z,2.00
2023-03-25T05:04:18.499Z,1.87
2023-03-25T05:06:49.505Z,1.90
2023-03-25T05:09:20.502Z,2.10
2023-03-25T05:11:51.484Z,1.90
2023-03-25T05:14:22.823Z,1.93
2023-03-25T05:16:51.749Z,1.90
2023-03-25T05:19:20.764Z,1.90
2023-03-25T05:21:49.791Z,2.20
2023-03-25T05:24:18.286Z,1.70
2023-03-25T05:26:47.132Z,2.00
2023-03-25T05:29:17.661Z,2.67
2023-03-25T05:31:48.740Z,2.80
2023-03-25T05:34:17.874Z,1.90
2023-03-25T05:36:46.731Z,2.67
2023-03-25T05:39:15.510Z,3.60
2023-03-25T05:41:45.854Z,3.03
2023-03-25T05:44:15.547Z,2.20
2023-03-25T05:46:45.936Z,2.90
2023-03-25T05:49:14.452Z,2.43
2023-03-25T05:51:45.297Z,2.07
2023-03-25T05:54:13.894Z,2.27
2023-03-25T05:56:42.957Z,3.50
2023-03-25T05:59:11.988Z,3.87
2023-03-25T06:01:42.101Z,3.10
2023-03-25T06:04:13.122Z,2.40
2023-03-25T06:06:42.453Z,2.80
2023-03-25T06:09:11.941Z,2.20
2023-03-25T06:11:46.847Z,2.67
2023-03-25T06:14:15.429Z,2.57
2023-03-25T06:16:44.064Z,2.63
2023-03-25T06:19:14.374Z,2.37
2023-03-25T06:21:43.676Z,2.00
2023-03-25T06:24:12.151Z,3.87
2023-03-25T06:26:40.739Z,2.80
2023-03-25T06:29:09.686Z,2.10
2023-03-25T06:31:38.310Z,2.57
2023-03-25T06:34:06.868Z,3.53
2023-03-25T06:36:36.733Z,2.07
2023-03-25T06:39:06.650Z,2.40
2023-03-25T06:41:38.100Z,2.63
2023-03-25T06:44:07.054Z,2.30
2023-03-25T06:46:35.660Z,2.30
2023-03-25T06:49:04.311Z,3.50
2023-03-25T06:51:33.051Z,3.47
2023-03-25T06:54:03.051Z,2.83
2023-03-25T06:56:31.905Z,3.00
2023-03-25T06:59:00.663Z,2.47
2023-03-25T07:01:29.258Z,3.47
2023-03-25T07:03:57.757Z,3.30
2023-03-25T07:06:26.659Z,2.10
2023-03-25T07:08:55.187Z,2.20
2023-03-25T07:11:28.832Z,2.07
2023-03-25T07:13:57.465Z,3.50
2023-03-25T07:16:27.085Z,2.37
2023-03-25T07:18:56.954Z,2.63
2023-03-25T07:21:25.489Z,2.40
2023-03-25T07:23:54.586Z,2.53
2023-03-25T07:26:23.142Z,2.87
2023-03-25T07:28:53.024Z,2.23
2023-03-25T07:31:21.640Z,2.13
2023-03-25T07:33:51.582Z,2.20
2023-03-25T07:36:22.061Z,1.83
2023-03-25T07:38:50.937Z,1.70
2023-03-25T07:41:19.542Z,2.70
2023-03-25T07:43:48.101Z,3.00
2023-03-25T07:46:18.246Z,3.70
2023-03-25T07:48:47.077Z,2.50
2023-03-25T07:51:15.597Z,3.00
2023-03-25T07:53:45.421Z,2.90
2023-03-25T07:56:14.753Z,2.67
2023-03-25T07:58:44.596Z,2.73
2023-03-25T08:01:13.239Z,2.67
2023-03-25T08:03:43.841Z,1.93
2023-03-25T08:06:12.511Z,2.23
2023-03-25T08:08:41.899Z,2.63
2023-03-25T08:11:11.367Z,2.80
2023-03-25T08:13:40.297Z,1.70
2023-03-25T08:16:13.392Z,2.53
2023-03-25T08:18:45.294Z,2.00
2023-03-25T08:21:14.924Z,2.30
2023-03-25T08:23:44.716Z,2.50
2023-03-25T08:26:13.498Z,2.70
2023-03-25T08:28:42.165Z,2.03
2023-03-25T08:31:12.053Z,2.00
2023-03-25T08:33:41.372Z,2.33
2023-03-25T08:36:14.468Z,2.00
2023-03-25T08:38:43.597Z,2.00
2023-03-25T08:41:12.200Z,3.03
2023-03-25T08:43:40.920Z,1.80
2023-03-25T08:46:10.341Z,2.47
2023-03-25T08:48:39.486Z,2.80
2023-03-25T08:51:09.644Z,2.00
2023-03-25T08:53:39.747Z,2.90
2023-03-25T08:56:09.316Z,3.27
2023-03-25T08:58:38.340Z,4.63
2023-03-25T09:01:07.615Z,1.77
2023-03-25T09:03:37.869Z,2.30
2023-03-25T09:06:07.258Z,2.30
2023-03-25T09:08:37.079Z,1.80
2023-03-25T09:11:07.790Z,2.20
2023-03-25T09:13:36.488Z,2.10
2023-03-25T09:16:05.242Z,2.60
2023-03-25T09:18:34.271Z,2.30
2023-03-25T09:21:03.114Z,2.87
2023-03-25T09:23:31.857Z,2.50
2023-03-25T09:26:04.043Z,2.70
2023-03-25T09:28:34.020Z,2.00
2023-03-25T09:31:03.181Z,1.97
2023-03-25T09:33:32.217Z,2.70
2023-03-25T09:36:01.390Z,2.37
2023-03-25T09:38:30.116Z,2.40
2023-03-25T09:40:59.000Z,1.97
2023-03-25T09:43:40.518Z,2.27
2023-03-25T09:46:10.508Z,1.73
2023-03-25T09:48:41.553Z,2.00
2023-03-25T09:51:15.749Z,2.00
2023-03-25T09:53:50.229Z,2.10
2023-03-25T09:56:22.913Z,1.80
2023-03-25T09:58:55.849Z,1.60
2023-03-25T10:01:33.442Z,1.63
2023-03-25T10:04:36.236Z,1.80
2023-03-25T10:07:17.214Z,1.70
2023-03-25T10:09:53.063Z,2.30
2023-03-25T10:12:34.933Z,2.23
2023-03-25T10:15:15.679Z,1.93
2023-03-25T10:17:58.911Z,2.37
2023-03-25T10:20:42.236Z,2.70
2023-03-25T10:23:23.485Z,2.60
2023-03-25T10:25:57.767Z,2.37
2023-03-25T10:28:30.102Z,2.57
2023-03-25T10:31:01.317Z,2.50
2023-03-25T10:33:36.697Z,2.63
2023-03-25T10:36:08.906Z,2.53
2023-03-25T10:38:40.132Z,2.20
2023-03-25T10:41:21.027Z,2.40
2023-03-25T10:43:49.756Z,2.20
2023-03-25T10:46:28.157Z,1.90
2023-03-25T10:48:57.145Z,2.27
2023-03-25T10:51:29.128Z,2.33
2023-03-25T10:53:59.617Z,2.17
2023-03-25T10:56:32.876Z,2.37
2023-03-25T10:59:07.273Z,1.73
2023-03-25T11:01:41.571Z,2.07
2023-03-25T11:04:14.303Z,2.37
2023-03-25T11:06:46.295Z,2.30
2023-03-25T11:09:24.190Z,1.40
2023-03-25T11:11:54.782Z,1.70
2023-03-25T11:14:28.662Z,1.70
2023-03-25T11:17:03.313Z,1.90
2023-03-25T11:19:40.992Z,2.17
2023-03-25T11:22:14.346Z,1.67
2023-03-25T11:24:45.956Z,2.80
2023-03-25T11:27:20.335Z,2.90
2023-03-25T11:29:54.219Z,1.90
2023-03-25T11:32:35.508Z,3.30
2023-03-25T11:35:16.869Z,1.97
2023-03-25T11:37:48.189Z,2.10
2023-03-25T11:40:19.409Z,1.80
2023-03-25T11:42:53.079Z,1.60
2023-03-25T11:45:24.789Z,1.97
2023-03-25T11:47:59.669Z,1.50
2023-03-25T11:50:31.220Z,1.73
2023-03-25T11:53:02.610Z,2.10
2023-03-25T11:55:34.072Z,2.07
2023-03-25T11:58:06.721Z,1.80
2023-03-25T12:00:40.822Z,2.07
2023-03-25T12:03:24.031Z,2.23
2023-03-25T12:06:01.038Z,1.97
2023-03-25T12:08:43.883Z,3.03
2023-03-25T12:11:18.370Z,2.17
2023-03-25T12:14:04.467Z,2.13
2023-03-25T12:16:44.824Z,2.20
2023-03-25T12:19:25.613Z,1.33
2023-03-25T12:22:14.936Z,1.37
2023-03-25T12:25:10.910Z,1.30
2023-03-25T12:27:49.018Z,1.30
2023-03-25T12:30:31.053Z,1.67
2023-03-25T12:33:12.021Z,2.53
2023-03-25T12:35:47.768Z,2.20
2023-03-25T12:38:37.787Z,2.63
2023-03-25T12:41:19.072Z,2.73
2023-03-25T12:44:01.123Z,1.93
2023-03-25T12:47:02.625Z,2.07
2023-03-25T12:49:50.056Z,2.40
2023-03-25T12:52:29.443Z,4.03
2023-03-25T12:55:11.516Z,2.30
2023-03-25T12:57:53.650Z,1.80
2023-03-25T13:00:34.337Z,2.33
2023-03-25T13:03:37.755Z,2.20
2023-03-25T13:06:17.776Z,2.33
2023-03-25T13:08:54.830Z,2.60
2023-03-25T13:11:29.064Z,2.20
2023-03-25T13:14:01.836Z,1.90
2023-03-25T13:16:33.559Z,1.83
2023-03-25T13:19:08.333Z,1.77
2023-03-25T13:21:41.626Z,2.10
2023-03-25T13:24:17.468Z,2.00
2023-03-25T13:26:49.073Z,1.67
2023-03-25T13:29:26.400Z,2.20
2023-03-25T13:31:59.989Z,1.53
2023-03-25T13:34:35.339Z,2.10
2023-03-25T13:37:18.155Z,1.87
2023-03-25T13:40:12.133Z,2.23
2023-03-25T13:42:49.665Z,2.20
2023-03-25T13:45:20.721Z,1.90
2023-03-25T13:47:56.158Z,1.63
2023-03-25T13:50:29.282Z,2.47
2023-03-25T13:53:04.641Z,1.67
2023-03-25T13:55:38.619Z,1.67
2023-03-25T13:58:33.778Z,1.20
2023-03-25T14:01:29.918Z,1.33
2023-03-25T14:04:40.340Z,1.87
2023-03-25T14:07:47.124Z,2.00
2023-03-25T14:10:43.497Z,1.77
2023-03-25T14:13:16.576Z,1.73
2023-03-25T14:15:54.787Z,1.27
2023-03-25T14:18:23.637Z,1.27
2023-03-25T14:20:52.808Z,1.10
2023-03-25T14:23:24.604Z,0.93
2023-03-25T14:25:59.050Z,1.20
2023-03-25T14:28:39.018Z,1.20
2023-03-25T14:31:26.139Z,1.40
2023-03-25T14:34:25.462Z,1.40
2023-03-25T14:37:18.982Z,1.33
2023-03-25T14:39:47.902Z,1.60
2023-03-25T14:42:30.173Z,1.73
2023-03-25T14:45:37.166Z,1.50
2023-03-25T14:48:23.056Z,2.00
2023-03-25T14:51:23.142Z,1.67
2023-03-25T14:53:55.929Z,1.47
2023-03-25T14:56:27.351Z,2.53
2023-03-25T14:59:01.771Z,1.80
2023-03-25T15:01:38.371Z,2.00
2023-03-25T15:04:19.059Z,1.70
2023-03-25T15:06:50.390Z,1.23
2023-03-25T15:09:21.444Z,2.27
2023-03-25T15:11:59.806Z,2.20
2023-03-25T15:14:33.335Z,1.40
2023-03-25T15:17:07.953Z,3.10
2023-03-25T15:20:27.915Z,1.80
2023-03-25T15:23:23.694Z,1.97
2023-03-25T15:25:55.770Z,1.67
2023-03-25T15:28:39.552Z,1.20
2023-03-25T15:31:32.171Z,1.50
2023-03-25T15:34:23.318Z,2.30
2023-03-25T15:37:12.461Z,1.10
2023-03-25T15:40:02.274Z,1.40
2023-03-25T15:43:01.631Z,1.20
2023-03-25T15:46:08.811Z,1.80
2023-03-25T15:49:09.921Z,16.97
2023-03-25T15:51:51.896Z,1.80
2023-03-25T15:54:43.560Z,2.00
2023-03-25T15:57:21.367Z,1.57
2023-03-25T15:59:59.757Z,1.87
2023-03-25T16:02:36.064Z,1.80
2023-03-25T16:05:20.727Z,1.67
2023-03-25T16:07:51.604Z,3.43
2023-03-25T16:10:28.416Z,3.20
2023-03-25T16:12:57.424Z,10.83
2023-03-25T16:15:30.633Z,6.67
2023-03-25T16:18:00.572Z,21.97
2023-03-25T16:20:32.115Z,6.27
2023-03-25T16:23:04.372Z,14.80
2023-03-25T16:25:38.163Z,6.20
2023-03-25T16:28:09.244Z,3.53
2023-03-25T16:30:40.355Z,3.80
2023-03-25T16:33:18.432Z,3.27
2023-03-25T16:35:59.665Z,5.07
2023-03-25T16:38:30.865Z,4.37
2023-03-25T16:41:05.046Z,3.30
2023-03-25T16:43:34.184Z,3.40
2023-03-25T16:46:05.107Z,4.17
2023-03-25T16:48:35.724Z,4.93
2023-03-25T16:51:12.502Z,3.80
2023-03-25T16:53:43.361Z,3.70
2023-03-25T16:56:24.758Z,5.00
2023-03-25T16:59:00.276Z,4.70
2023-03-25T17:01:30.369Z,3.83
2023-03-25T17:04:11.968Z,4.03
2023-03-25T17:06:45.607Z,3.80
2023-03-25T17:09:20.107Z,3.60
2023-03-25T17:11:52.973Z,3.00
2023-03-25T17:14:26.497Z,3.77
2023-03-25T17:17:00.945Z,3.37
2023-03-25T17:19:33.225Z,3.00
2023-03-25T17:22:17.552Z,2.80
2023-03-25T17:24:56.884Z,2.37
2023-03-25T17:27:34.148Z,2.73
2023-03-25T17:30:21.394Z,2.80
2023-03-25T17:32:51.317Z,2.53
2023-03-25T17:35:24.880Z,2.80
2023-03-25T17:37:54.476Z,2.37
2023-03-25T17:40:28.801Z,2.87
2023-03-25T17:42:58.747Z,2.27
2023-03-25T17:45:28.230Z,1.40
2023-03-25T17:47:58.134Z,1.50
2023-03-25T17:50:33.338Z,1.70
2023-03-25T17:53:09.302Z,1.40
2023-03-25T17:55:40.799Z,1.30
2023-03-25T17:58:11.820Z,1.50
2023-03-25T18:00:40.772Z,1.63
2023-03-25T18:03:19.416Z,1.90
2023-03-25T18:05:51.218Z,1.90
2023-03-25T18:08:20.907Z,2.07
2023-03-25T18:10:52.671Z,2.90
2023-03-25T18:13:24.203Z,3.80
2023-03-25T18:15:53.872Z,3.10
2023-03-25T18:18:28.060Z,3.10
2023-03-25T18:21:00.347Z,2.87
2023-03-25T18:23:29.673Z,2.90
2023-03-25T18:26:00.411Z,2.93
2023-03-25T18:28:31.260Z,2.63
2023-03-25T18:31:00.733Z,3.50
2023-03-25T18:33:35.300Z,3.43
2023-03-25T18:36:05.524Z,3.10
2023-03-25T18:38:35.267Z,3.23
2023-03-25T18:41:07.049Z,3.07
2023-03-25T18:43:35.974Z,2.43
2023-03-25T18:46:06.387Z,2.20
2023-03-25T18:48:39.140Z,2.17
2023-03-25T18:51:09.214Z,2.23
2023-03-25T18:53:40.835Z,1.80
2023-03-25T18:56:12.594Z,1.93
2023-03-25T18:58:41.592Z,1.77
2023-03-25T19:01:16.171Z,2.60
2023-03-25T19:03:45.798Z,2.13
2023-03-25T19:06:15.819Z,4.03
2023-03-25T19:08:45.766Z,2.60
2023-03-25T19:11:21.524Z,2.37
2023-03-25T19:13:52.162Z,3.90
2023-03-25T19:16:22.202Z,3.53
2023-03-25T19:18:51.475Z,3.17
2023-03-25T19:21:23.692Z,4.27
2023-03-25T19:23:52.941Z,4.33
2023-03-25T19:26:23.815Z,4.47
2023-03-25T19:28:52.826Z,4.27
2023-03-25T19:31:21.919Z,3.13
2023-03-25T19:33:51.013Z,4.57
2023-03-25T19:36:20.810Z,4.07
2023-03-25T19:38:53.499Z,4.07
2023-03-25T19:41:24.397Z,4.00
2023-03-25T19:43:53.489Z,4.20
2023-03-25T19:46:24.175Z,4.90
2023-03-25T19:48:53.852Z,5.00
2023-03-25T19:51:22.758Z,5.10
2023-03-25T19:53:52.022Z,6.07
2023-03-25T19:56:21.408Z,4.73
2023-03-25T19:58:52.003Z,3.80
2023-03-25T20:01:22.804Z,4.30
2023-03-25T20:03:53.010Z,4.13
2023-03-25T20:06:25.286Z,4.57
2023-03-25T20:08:57.350Z,6.10
2023-03-25T20:11:27.089Z,6.40
2023-03-25T20:13:57.908Z,6.97
2023-03-25T20:16:28.774Z,7.37
2023-03-25T20:19:00.405Z,5.23
2023-03-25T20:21:29.780Z,5.47
2023-03-25T20:23:59.588Z,5.80
2023-03-25T20:26:29.604Z,6.17
2023-03-25T20:29:00.145Z,4.97
2023-03-25T20:31:29.916Z,5.97
2023-03-25T20:33:59.117Z,5.90
2023-03-25T20:36:28.172Z,6.20
2023-03-25T20:38:58.178Z,9.17
2023-03-25T20:41:30.976Z,9.00
2023-03-25T20:44:04.410Z,7.57
2023-03-25T20:46:34.552Z,7.73
2023-03-25T20:49:06.613Z,8.60
2023-03-25T20:51:38.295Z,7.30
2023-03-25T20:54:07.741Z,6.80
2023-03-25T20:56:37.265Z,7.73
2023-03-25T20:59:09.562Z,7.20
2023-03-25T21:01:38.690Z,8.47
2023-03-25T21:04:09.995Z,7.63
2023-03-25T21:06:40.154Z,7.57
2023-03-25T21:09:12.906Z,7.90
2023-03-25T21:11:42.256Z,8.03
2023-03-25T21:14:15.133Z,8.47
2023-03-25T21:16:44.704Z,8.00
2023-03-25T21:19:14.171Z,9.03
2023-03-25T21:21:43.881Z,9.23
2023-03-25T21:24:21.778Z,8.07
2023-03-25T21:26:56.166Z,8.27
2023-03-25T21:29:27.456Z,7.93
2023-03-25T21:31:59.980Z,7.87
2023-03-25T21:34:30.502Z,10.53
2023-03-25T21:37:01.178Z,7.87
2023-03-25T21:39:30.210Z,6.47
2023-03-25T21:41:59.404Z,6.17
2023-03-25T21:44:41.505Z,7.13
2023-03-25T21:47:12.209Z,6.43
2023-03-25T21:49:43.075Z,6.57
2023-03-25T21:52:13.227Z,6.50
2023-03-25T21:54:47.344Z,5.53
2023-03-25T21:57:16.594Z,5.67
2023-03-25T21:59:49.760Z,5.43
2023-03-25T22:02:21.349Z,4.97
2023-03-25T22:04:50.999Z,5.20
2023-03-25T22:07:19.921Z,5.00
2023-03-25T22:09:49.453Z,4.93
2023-03-25T22:12:19.312Z,4.30
2023-03-25T22:14:50.027Z,4.50
2023-03-25T22:17:19.821Z,5.37
2023-03-25T22:19:50.856Z,3.90
2023-03-25T22:22:22.631Z,3.93
2023-03-25T22:24:51.988Z,4.20
2023-03-25T22:27:21.019Z,4.17
2023-03-25T22:29:52.015Z,3.50
2023-03-25T22:32:21.463Z,3.40
2023-03-25T22:34:51.122Z,3.27
2023-03-25T22:37:21.023Z,3.57
2023-03-25T22:39:50.551Z,3.80
2023-03-25T22:42:19.511Z,3.60
2023-03-25T22:44:49.307Z,3.60
2023-03-25T22:47:20.587Z,3.90
2023-03-25T22:49:49.727Z,4.70
2023-03-25T22:52:18.766Z,4.40
2023-03-25T22:54:48.668Z,4.50
2023-03-25T22:57:19.733Z,5.90
2023-03-25T22:59:49.117Z,4.60
2023-03-25T23:02:21.812Z,4.30
2023-03-25T23:04:51.099Z,4.60
2023-03-25T23:07:19.835Z,5.00
2023-03-25T23:09:48.906Z,5.37
2023-03-25T23:12:23.009Z,4.33
2023-03-25T23:14:54.471Z,4.40
2023-03-25T23:17:25.534Z,6.70
2023-03-25T23:19:54.876Z,4.70
2023-03-25T23:22:24.940Z,4.73
2023-03-25T23:24:53.820Z,4.00
2023-03-25T23:27:24.474Z,4.73
2023-03-25T23:29:54.066Z,4.43
2023-03-25T23:32:24.530Z,4.20
2023-03-25T23:34:54.969Z,4.60
2023-03-25T23:37:27.202Z,5.03
2023-03-25T23:39:56.058Z,5.07
2023-03-25T23:42:35.051Z,4.60
2023-03-25T23:45:05.669Z,4.57
2023-03-25T23:47:36.100Z,5.30
2023-03-25T23:50:05.046Z,5.77
2023-03-25T23:52:34.854Z,5.27
2023-03-25T23:55:03.640Z,5.57
2023-03-25T23:57:32.331Z,6.73
